sensor_id;sensor_type;location;lat;lon;timestamp;P1;durP1;ratioP1;P2;durP2;ratioP2
76667;SDS011;65585;51.166;16.922;2023-06-10T00:02:37;16.38;;;10.82;;
76667;SDS011;65585;51.166;16.922;2023-06-10T00:05:14;15.80;;;10.25;;
76667;SDS011;65585;51.166;16.922;2023-06-10T00:08:01;14.93;;;10.95;;
76667;SDS011;65585;51.166;16.922;2023-06-10T00:10:45;18.13;;;11.13;;
76667;SDS011;65585;51.166;16.922;2023-06-10T00:13:23;17.17;;;10.52;;
76667;SDS011;65585;51.166;16.922;2023-06-10T00:16:03;15.60;;;11.15;;
76667;SDS011;65585;51.166;16.922;2023-06-10T00:18:35;20.55;;;11.65;;
76667;SDS011;65585;51.166;16.922;2023-06-10T00:21:41;22.63;;;13.25;;
76667;SDS011;65585;51.166;16.922;2023-06-10T00:24:21;25.85;;;14.15;;
76667;SDS011;65585;51.166;16.922;2023-06-10T00:27:08;21.38;;;13.00;;
76667;SDS011;65585;51.166;16.922;2023-06-10T00:29:50;21.10;;;13.15;;
76667;SDS011;65585;51.166;16.922;2023-06-10T00:32:41;20.75;;;13.75;;
76667;SDS011;65585;51.166;16.922;2023-06-10T00:35:37;20.35;;;12.98;;
76667;SDS011;65585;51.166;16.922;2023-06-10T00:38:19;19.08;;;11.68;;
76667;SDS011;65585;51.166;16.922;2023-06-10T00:44:49;18.42;;;12.05;;
76667;SDS011;65585;51.166;16.922;2023-06-10T00:47:42;22.05;;;12.65;;
76667;SDS011;65585;51.166;16.922;2023-06-10T00:50:15;21.48;;;14.00;;
76667;SDS011;65585;51.166;16.922;2023-06-10T00:53:19;18.50;;;11.57;;
76667;SDS011;65585;51.166;16.922;2023-06-10T00:55:57;21.08;;;11.52;;
76667;SDS011;65585;51.166;16.922;2023-06-10T00:58:28;21.05;;;13.80;;
76667;SDS011;65585;51.166;16.922;2023-06-10T01:01:08;20.80;;;13.30;;
76667;SDS011;65585;51.166;16.922;2023-06-10T01:03:42;20.05;;;12.57;;
76667;SDS011;65585;51.166;16.922;2023-06-10T01:06:35;16.58;;;11.93;;
76667;SDS011;65585;51.166;16.922;2023-06-10T01:10:03;17.15;;;12.23;;
76667;SDS011;65585;51.166;16.922;2023-06-10T01:12:41;14.93;;;10.30;;
76667;SDS011;65585;51.166;16.922;2023-06-10T01:15:21;15.48;;;10.45;;
76667;SDS011;65585;51.166;16.922;2023-06-10T01:17:58;17.67;;;11.30;;
76667;SDS011;65585;51.166;16.922;2023-06-10T01:20:33;15.43;;;10.60;;
76667;SDS011;65585;51.166;16.922;2023-06-10T01:23:09;16.55;;;11.57;;
76667;SDS011;65585;51.166;16.922;2023-06-10T01:25:47;15.40;;;11.23;;
76667;SDS011;65585;51.166;16.922;2023-06-10T01:31:19;15.80;;;11.73;;
76667;SDS011;65585;51.166;16.922;2023-06-10T01:34:34;14.57;;;11.00;;
76667;SDS011;65585;51.166;16.922;2023-06-10T01:37:06;13.65;;;10.63;;
76667;SDS011;65585;51.166;16.922;2023-06-10T01:39:43;12.95;;;10.27;;
76667;SDS011;65585;51.166;16.922;2023-06-10T01:42:15;13.95;;;10.93;;
76667;SDS011;65585;51.166;16.922;2023-06-10T01:44:43;15.27;;;10.52;;
76667;SDS011;65585;51.166;16.922;2023-06-10T01:47:12;18.38;;;11.75;;
76667;SDS011;65585;51.166;16.922;2023-06-10T01:49:43;17.25;;;11.90;;
76667;SDS011;65585;51.166;16.922;2023-06-10T01:52:10;16.30;;;11.40;;
76667;SDS011;65585;51.166;16.922;2023-06-10T01:54:40;15.27;;;11.05;;
76667;SDS011;65585;51.166;16.922;2023-06-10T01:57:09;16.27;;;11.43;;
76667;SDS011;65585;51.166;16.922;2023-06-10T01:59:40;14.15;;;11.40;;
76667;SDS011;65585;51.166;16.922;2023-06-10T02:02:15;14.65;;;10.18;;
76667;SDS011;65585;51.166;16.922;2023-06-10T02:04:53;13.30;;;10.57;;
76667;SDS011;65585;51.166;16.922;2023-06-10T02:07:26;13.73;;;10.45;;
76667;SDS011;65585;51.166;16.922;2023-06-10T02:10:07;12.77;;;9.43;;
76667;SDS011;65585;51.166;16.922;2023-06-10T02:12:53;13.85;;;10.48;;
76667;SDS011;65585;51.166;16.922;2023-06-10T02:15:40;14.73;;;11.50;;
76667;SDS011;65585;51.166;16.922;2023-06-10T02:18:17;16.35;;;11.32;;
76667;SDS011;65585;51.166;16.922;2023-06-10T02:20:58;16.13;;;12.55;;
76667;SDS011;65585;51.166;16.922;2023-06-10T02:26:39;20.42;;;14.23;;
76667;SDS011;65585;51.166;16.922;2023-06-10T02:29:15;24.67;;;14.70;;
76667;SDS011;65585;51.166;16.922;2023-06-10T02:32:18;23.13;;;15.00;;
76667;SDS011;65585;51.166;16.922;2023-06-10T02:38:45;21.05;;;14.55;;
76667;SDS011;65585;51.166;16.922;2023-06-10T02:41:41;23.00;;;14.82;;
76667;SDS011;65585;51.166;16.922;2023-06-10T02:44:37;22.23;;;14.45;;
76667;SDS011;65585;51.166;16.922;2023-06-10T02:47:05;21.45;;;15.75;;
76667;SDS011;65585;51.166;16.922;2023-06-10T02:49:34;23.52;;;15.38;;
76667;SDS011;65585;51.166;16.922;2023-06-10T02:52:01;21.60;;;15.20;;
76667;SDS011;65585;51.166;16.922;2023-06-10T02:54:30;21.65;;;15.30;;
76667;SDS011;65585;51.166;16.922;2023-06-10T02:56:59;22.98;;;15.30;;
76667;SDS011;65585;51.166;16.922;2023-06-10T02:59:26;20.48;;;14.95;;
76667;SDS011;65585;51.166;16.922;2023-06-10T03:01:55;22.58;;;14.98;;
76667;SDS011;65585;51.166;16.922;2023-06-10T03:04:27;24.75;;;15.27;;
76667;SDS011;65585;51.166;16.922;2023-06-10T03:09:49;20.23;;;13.90;;
76667;SDS011;65585;51.166;16.922;2023-06-10T03:12:27;19.55;;;14.40;;
76667;SDS011;65585;51.166;16.922;2023-06-10T03:14:57;20.63;;;14.65;;
76667;SDS011;65585;51.166;16.922;2023-06-10T03:18:05;17.77;;;14.07;;
76667;SDS011;65585;51.166;16.922;2023-06-10T03:21:05;19.80;;;14.15;;
76667;SDS011;65585;51.166;16.922;2023-06-10T03:24:00;20.55;;;14.15;;
76667;SDS011;65585;51.166;16.922;2023-06-10T03:26:46;22.08;;;15.05;;
76667;SDS011;65585;51.166;16.922;2023-06-10T03:32:51;18.70;;;14.13;;
76667;SDS011;65585;51.166;16.922;2023-06-10T03:35:44;18.88;;;13.98;;
76667;SDS011;65585;51.166;16.922;2023-06-10T03:39:18;16.90;;;12.85;;
76667;SDS011;65585;51.166;16.922;2023-06-10T03:42:24;19.27;;;13.88;;
76667;SDS011;65585;51.166;16.922;2023-06-10T03:45:32;24.50;;;15.10;;
76667;SDS011;65585;51.166;16.922;2023-06-10T03:48:20;24.65;;;15.93;;
76667;SDS011;65585;51.166;16.922;2023-06-10T03:51:47;19.08;;;13.60;;
76667;SDS011;65585;51.166;16.922;2023-06-10T03:57:09;20.58;;;15.52;;
76667;SDS011;65585;51.166;16.922;2023-06-10T04:03:20;18.70;;;14.15;;
76667;SDS011;65585;51.166;16.922;2023-06-10T04:06:56;20.85;;;15.55;;
76667;SDS011;65585;51.166;16.922;2023-06-10T04:09:39;17.55;;;14.02;;
76667;SDS011;65585;51.166;16.922;2023-06-10T04:12:31;19.60;;;14.85;;
76667;SDS011;65585;51.166;16.922;2023-06-10T04:15:11;21.00;;;13.88;;
76667;SDS011;65585;51.166;16.922;2023-06-10T04:18:03;19.40;;;14.55;;
76667;SDS011;65585;51.166;16.922;2023-06-10T04:20:47;20.60;;;14.98;;
76667;SDS011;65585;51.166;16.922;2023-06-10T04:23:45;20.85;;;15.40;;
76667;SDS011;65585;51.166;16.922;2023-06-10T04:27:16;23.27;;;14.32;;
76667;SDS011;65585;51.166;16.922;2023-06-10T04:32:51;24.05;;;15.85;;
76667;SDS011;65585;51.166;16.922;2023-06-10T04:35:23;19.65;;;14.82;;
76667;SDS011;65585;51.166;16.922;2023-06-10T04:38:16;21.08;;;15.50;;
76667;SDS011;65585;51.166;16.922;2023-06-10T04:41:14;21.33;;;15.00;;
76667;SDS011;65585;51.166;16.922;2023-06-10T04:44:24;19.42;;;14.10;;
76667;SDS011;65585;51.166;16.922;2023-06-10T04:47:02;19.40;;;15.00;;
76667;SDS011;65585;51.166;16.922;2023-06-10T04:49:48;22.75;;;16.50;;
76667;SDS011;65585;51.166;16.922;2023-06-10T04:52:40;20.25;;;15.32;;
76667;SDS011;65585;51.166;16.922;2023-06-10T04:59:00;18.90;;;14.85;;
76667;SDS011;65585;51.166;16.922;2023-06-10T05:01:52;18.27;;;15.90;;
76667;SDS011;65585;51.166;16.922;2023-06-10T05:04:45;19.05;;;13.98;;
76667;SDS011;65585;51.166;16.922;2023-06-10T05:07:37;17.10;;;14.95;;
76667;SDS011;65585;51.166;16.922;2023-06-10T05:10:37;18.52;;;15.32;;
76667;SDS011;65585;51.166;16.922;2023-06-10T05:14:01;23.85;;;16.63;;
76667;SDS011;65585;51.166;16.922;2023-06-10T05:20:26;22.30;;;15.38;;
76667;SDS011;65585;51.166;16.922;2023-06-10T05:23:18;18.20;;;14.68;;
76667;SDS011;65585;51.166;16.922;2023-06-10T05:26:22;21.73;;;16.77;;
76667;SDS011;65585;51.166;16.922;2023-06-10T05:29:12;20.85;;;17.25;;
76667;SDS011;65585;51.166;16.922;2023-06-10T05:31:53;18.40;;;15.55;;
76667;SDS011;65585;51.166;16.922;2023-06-10T05:34:28;19.98;;;16.90;;
76667;SDS011;65585;51.166;16.922;2023-06-10T05:37:19;20.50;;;16.95;;
76667;SDS011;65585;51.166;16.922;2023-06-10T05:40:31;20.35;;;17.48;;
76667;SDS011;65585;51.166;16.922;2023-06-10T05:46:51;23.08;;;16.25;;
76667;SDS011;65585;51.166;16.922;2023-06-10T05:49:53;18.25;;;16.23;;
76667;SDS011;65585;51.166;16.922;2023-06-10T05:52:37;18.65;;;15.45;;
76667;SDS011;65585;51.166;16.922;2023-06-10T05:55:32;17.45;;;15.65;;
76667;SDS011;65585;51.166;16.922;2023-06-10T05:58:27;14.32;;;12.57;;
76667;SDS011;65585;51.166;16.922;2023-06-10T06:01:34;16.77;;;14.68;;
76667;SDS011;65585;51.166;16.922;2023-06-10T06:04:07;17.40;;;12.95;;
76667;SDS011;65585;51.166;16.922;2023-06-10T06:06:38;14.77;;;13.10;;
76667;SDS011;65585;51.166;16.922;2023-06-10T06:09:10;15.63;;;13.13;;
76667;SDS011;65585;51.166;16.922;2023-06-10T06:11:44;15.25;;;13.23;;
76667;SDS011;65585;51.166;16.922;2023-06-10T06:14:38;15.73;;;13.35;;
76667;SDS011;65585;51.166;16.922;2023-06-10T06:17:09;16.35;;;12.65;;
76667;SDS011;65585;51.166;16.922;2023-06-10T06:19:52;18.17;;;13.68;;
76667;SDS011;65585;51.166;16.922;2023-06-10T06:22:42;14.57;;;13.02;;
76667;SDS011;65585;51.166;16.922;2023-06-10T06:25:22;17.10;;;15.40;;
76667;SDS011;65585;51.166;16.922;2023-06-10T06:27:58;16.10;;;14.50;;
76667;SDS011;65585;51.166;16.922;2023-06-10T06:30:26;16.20;;;14.50;;
76667;SDS011;65585;51.166;16.922;2023-06-10T06:33:10;16.23;;;13.60;;
76667;SDS011;65585;51.166;16.922;2023-06-10T06:35:39;16.23;;;13.70;;
76667;SDS011;65585;51.166;16.922;2023-06-10T06:38:25;16.35;;;13.90;;
76667;SDS011;65585;51.166;16.922;2023-06-10T06:40:55;15.10;;;13.30;;
76667;SDS011;65585;51.166;16.922;2023-06-10T06:43:27;14.07;;;12.07;;
76667;SDS011;65585;51.166;16.922;2023-06-10T06:46:22;13.63;;;11.93;;
76667;SDS011;65585;51.166;16.922;2023-06-10T06:49:18;13.48;;;12.07;;
76667;SDS011;65585;51.166;16.922;2023-06-10T06:51:47;14.82;;;13.32;;
76667;SDS011;65585;51.166;16.922;2023-06-10T06:54:14;12.82;;;11.30;;
76667;SDS011;65585;51.166;16.922;2023-06-10T06:59:40;13.25;;;10.93;;
76667;SDS011;65585;51.166;16.922;2023-06-10T07:06:01;14.07;;;10.57;;
76667;SDS011;65585;51.166;16.922;2023-06-10T07:11:27;13.75;;;10.63;;
76667;SDS011;65585;51.166;16.922;2023-06-10T07:13:56;12.27;;;11.02;;
76667;SDS011;65585;51.166;16.922;2023-06-10T07:16:23;13.48;;;11.77;;
76667;SDS011;65585;51.166;16.922;2023-06-10T07:18:50;12.60;;;11.30;;
76667;SDS011;65585;51.166;16.922;2023-06-10T07:21:16;14.15;;;10.98;;
76667;SDS011;65585;51.166;16.922;2023-06-10T07:23:43;11.35;;;9.93;;
76667;SDS011;65585;51.166;16.922;2023-06-10T07:26:10;12.85;;;10.63;;
76667;SDS011;65585;51.166;16.922;2023-06-10T07:28:42;12.57;;;10.45;;
76667;SDS011;65585;51.166;16.922;2023-06-10T07:31:11;10.85;;;9.75;;
76667;SDS011;65585;51.166;16.922;2023-06-10T07:37:17;11.13;;;9.93;;
76667;SDS011;65585;51.166;16.922;2023-06-10T07:40:08;11.45;;;10.30;;
76667;SDS011;65585;51.166;16.922;2023-06-10T07:43:00;11.30;;;10.10;;
76667;SDS011;65585;51.166;16.922;2023-06-10T07:49:54;11.43;;;9.90;;
76667;SDS011;65585;51.166;16.922;2023-06-10T07:52:26;10.90;;;9.60;;
76667;SDS011;65585;51.166;16.922;2023-06-10T07:58:33;9.23;;;8.18;;
76667;SDS011;65585;51.166;16.922;2023-06-10T08:01:16;9.75;;;8.77;;
76667;SDS011;65585;51.166;16.922;2023-06-10T08:03:48;10.77;;;9.02;;
76667;SDS011;65585;51.166;16.922;2023-06-10T08:06:25;9.85;;;8.65;;
76667;SDS011;65585;51.166;16.922;2023-06-10T08:23:55;9.00;;;8.10;;
76667;SDS011;65585;51.166;16.922;2023-06-10T08:33:26;9.05;;;8.18;;
76667;SDS011;65585;51.166;16.922;2023-06-10T08:35:52;10.60;;;9.52;;
76667;SDS011;65585;51.166;16.922;2023-06-10T08:38:18;12.13;;;8.02;;
76667;SDS011;65585;51.166;16.922;2023-06-10T08:40:45;9.90;;;8.15;;
76667;SDS011;65585;51.166;16.922;2023-06-10T08:43:20;10.52;;;8.98;;
76667;SDS011;65585;51.166;16.922;2023-06-10T08:45:51;8.85;;;7.22;;
76667;SDS011;65585;51.166;16.922;2023-06-10T08:48:19;10.63;;;8.07;;
76667;SDS011;65585;51.166;16.922;2023-06-10T08:50:45;10.27;;;8.55;;
76667;SDS011;65585;51.166;16.922;2023-06-10T08:53:13;9.15;;;7.53;;
76667;SDS011;65585;51.166;16.922;2023-06-10T08:55:44;8.57;;;6.35;;
76667;SDS011;65585;51.166;16.922;2023-06-10T08:58:14;8.27;;;7.38;;
76667;SDS011;65585;51.166;16.922;2023-06-10T09:00:40;10.18;;;9.20;;
76667;SDS011;65585;51.166;16.922;2023-06-10T09:03:06;9.07;;;8.20;;
76667;SDS011;65585;51.166;16.922;2023-06-10T09:05:34;10.85;;;9.32;;
76667;SDS011;65585;51.166;16.922;2023-06-10T09:10:28;11.07;;;9.32;;
76667;SDS011;65585;51.166;16.922;2023-06-10T09:12:55;9.80;;;8.80;;
76667;SDS011;65585;51.166;16.922;2023-06-10T09:15:21;12.52;;;9.63;;
76667;SDS011;65585;51.166;16.922;2023-06-10T09:17:48;13.07;;;8.63;;
76667;SDS011;65585;51.166;16.922;2023-06-10T09:20:14;9.25;;;8.35;;
76667;SDS011;65585;51.166;16.922;2023-06-10T09:22:41;9.80;;;8.80;;
76667;SDS011;65585;51.166;16.922;2023-06-10T09:25:09;10.93;;;9.90;;
76667;SDS011;65585;51.166;16.922;2023-06-10T09:27:58;12.13;;;9.82;;
76667;SDS011;65585;51.166;16.922;2023-06-10T09:32:58;11.80;;;10.70;;
76667;SDS011;65585;51.166;16.922;2023-06-10T09:35:25;13.90;;;12.45;;
76667;SDS011;65585;51.166;16.922;2023-06-10T09:37:52;15.63;;;13.65;;
76667;SDS011;65585;51.166;16.922;2023-06-10T09:40:22;14.23;;;12.38;;
76667;SDS011;65585;51.166;16.922;2023-06-10T09:42:53;12.82;;;11.48;;
76667;SDS011;65585;51.166;16.922;2023-06-10T09:45:21;13.68;;;12.32;;
76667;SDS011;65585;51.166;16.922;2023-06-10T09:47:51;15.45;;;12.88;;
76667;SDS011;65585;51.166;16.922;2023-06-10T09:50:18;13.18;;;11.93;;
76667;SDS011;65585;51.166;16.922;2023-06-10T09:52:45;14.43;;;12.98;;
76667;SDS011;65585;51.166;16.922;2023-06-10T09:55:16;12.65;;;11.32;;
76667;SDS011;65585;51.166;16.922;2023-06-10T09:57:43;11.77;;;10.57;;
76667;SDS011;65585;51.166;16.922;2023-06-10T10:00:14;12.32;;;11.13;;
76667;SDS011;65585;51.166;16.922;2023-06-10T10:02:51;12.63;;;10.80;;
76667;SDS011;65585;51.166;16.922;2023-06-10T10:05:19;11.65;;;10.55;;
76667;SDS011;65585;51.166;16.922;2023-06-10T10:07:47;11.68;;;10.57;;
76667;SDS011;65585;51.166;16.922;2023-06-10T10:10:16;12.75;;;11.43;;
76667;SDS011;65585;51.166;16.922;2023-06-10T10:12:42;11.88;;;10.48;;
76667;SDS011;65585;51.166;16.922;2023-06-10T10:15:15;10.98;;;9.77;;
76667;SDS011;65585;51.166;16.922;2023-06-10T10:17:45;10.40;;;9.40;;
76667;SDS011;65585;51.166;16.922;2023-06-10T10:20:16;11.18;;;10.18;;
76667;SDS011;65585;51.166;16.922;2023-06-10T10:22:47;12.52;;;8.85;;
76667;SDS011;65585;51.166;16.922;2023-06-10T10:25:16;9.85;;;8.65;;
76667;SDS011;65585;51.166;16.922;2023-06-10T10:30:44;9.25;;;8.35;;
76667;SDS011;65585;51.166;16.922;2023-06-10T10:33:13;12.13;;;8.10;;
76667;SDS011;65585;51.166;16.922;2023-06-10T10:35:45;8.18;;;7.15;;
76667;SDS011;65585;51.166;16.922;2023-06-10T10:38:11;8.20;;;6.95;;
76667;SDS011;65585;51.166;16.922;2023-06-10T10:40:38;8.50;;;7.05;;
76667;SDS011;65585;51.166;16.922;2023-06-10T10:43:04;10.23;;;7.07;;
76667;SDS011;65585;51.166;16.922;2023-06-10T10:45:33;7.90;;;7.10;;
76667;SDS011;65585;51.166;16.922;2023-06-10T10:47:59;9.30;;;6.95;;
76667;SDS011;65585;51.166;16.922;2023-06-10T10:50:32;8.35;;;7.03;;
76667;SDS011;65585;51.166;16.922;2023-06-10T10:53:01;8.43;;;6.93;;
76667;SDS011;65585;51.166;16.922;2023-06-10T10:55:28;6.72;;;6.03;;
76667;SDS011;65585;51.166;16.922;2023-06-10T10:57:55;8.70;;;6.95;;
76667;SDS011;65585;51.166;16.922;2023-06-10T11:00:29;7.97;;;6.85;;
76667;SDS011;65585;51.166;16.922;2023-06-10T11:03:13;6.68;;;6.07;;
76667;SDS011;65585;51.166;16.922;2023-06-10T11:05:43;7.20;;;5.68;;
76667;SDS011;65585;51.166;16.922;2023-06-10T11:08:13;6.75;;;5.90;;
76667;SDS011;65585;51.166;16.922;2023-06-10T11:10:59;6.13;;;5.55;;
76667;SDS011;65585;51.166;16.922;2023-06-10T11:13:26;8.70;;;5.60;;
76667;SDS011;65585;51.166;16.922;2023-06-10T11:15:56;7.70;;;5.43;;
76667;SDS011;65585;51.166;16.922;2023-06-10T11:18:24;8.20;;;5.60;;
76667;SDS011;65585;51.166;16.922;2023-06-10T11:20:54;6.78;;;5.80;;
76667;SDS011;65585;51.166;16.922;2023-06-10T11:26:09;6.15;;;5.18;;
76667;SDS011;65585;51.166;16.922;2023-06-10T11:29:03;5.88;;;5.25;;
76667;SDS011;65585;51.166;16.922;2023-06-10T11:31:31;7.82;;;5.63;;
76667;SDS011;65585;51.166;16.922;2023-06-10T11:33:59;8.57;;;6.05;;
76667;SDS011;65585;51.166;16.922;2023-06-10T11:36:27;8.07;;;6.20;;
76667;SDS011;65585;51.166;16.922;2023-06-10T11:38:58;8.93;;;5.97;;
76667;SDS011;65585;51.166;16.922;2023-06-10T11:41:30;8.27;;;5.93;;
76667;SDS011;65585;51.166;16.922;2023-06-10T11:43:57;7.78;;;6.18;;
76667;SDS011;65585;51.166;16.922;2023-06-10T11:46:28;8.57;;;5.60;;
76667;SDS011;65585;51.166;16.922;2023-06-10T11:48:55;6.53;;;5.15;;
76667;SDS011;65585;51.166;16.922;2023-06-10T11:51:25;5.88;;;5.25;;
76667;SDS011;65585;51.166;16.922;2023-06-10T11:53:53;7.78;;;5.97;;
76667;SDS011;65585;51.166;16.922;2023-06-10T11:58:55;6.85;;;5.82;;
76667;SDS011;65585;51.166;16.922;2023-06-10T12:01:24;9.18;;;7.03;;
76667;SDS011;65585;51.166;16.922;2023-06-10T12:04:01;6.55;;;5.95;;
76667;SDS011;65585;51.166;16.922;2023-06-10T12:06:38;7.38;;;5.40;;
76667;SDS011;65585;51.166;16.922;2023-06-10T12:09:19;9.00;;;5.70;;
76667;SDS011;65585;51.166;16.922;2023-06-10T12:11:50;6.70;;;5.53;;
76667;SDS011;65585;51.166;16.922;2023-06-10T12:17:20;6.35;;;5.20;;
76667;SDS011;65585;51.166;16.922;2023-06-10T12:19:48;7.15;;;5.15;;
76667;SDS011;65585;51.166;16.922;2023-06-10T12:22:15;8.82;;;6.15;;
76667;SDS011;65585;51.166;16.922;2023-06-10T12:24:45;7.75;;;5.50;;
76667;SDS011;65585;51.166;16.922;2023-06-10T12:27:13;8.02;;;5.30;;
76667;SDS011;65585;51.166;16.922;2023-06-10T12:29:39;7.30;;;5.38;;
76667;SDS011;65585;51.166;16.922;2023-06-10T12:32:05;6.05;;;5.20;;
76667;SDS011;65585;51.166;16.922;2023-06-10T12:34:39;8.10;;;5.32;;
76667;SDS011;65585;51.166;16.922;2023-06-10T12:37:09;8.82;;;6.32;;
76667;SDS011;65585;51.166;16.922;2023-06-10T12:39:40;7.93;;;5.35;;
76667;SDS011;65585;51.166;16.922;2023-06-10T12:42:08;7.25;;;5.22;;
76667;SDS011;65585;51.166;16.922;2023-06-10T12:44:35;6.47;;;5.13;;
76667;SDS011;65585;51.166;16.922;2023-06-10T12:47:08;6.60;;;4.90;;
76667;SDS011;65585;51.166;16.922;2023-06-10T12:49:36;6.50;;;5.40;;
76667;SDS011;65585;51.166;16.922;2023-06-10T12:52:03;8.20;;;4.65;;
76667;SDS011;65585;51.166;16.922;2023-06-10T12:54:30;6.10;;;4.97;;
76667;SDS011;65585;51.166;16.922;2023-06-10T12:56:57;5.20;;;4.70;;
76667;SDS011;65585;51.166;16.922;2023-06-10T12:59:23;8.55;;;5.22;;
76667;SDS011;65585;51.166;16.922;2023-06-10T13:01:53;7.35;;;4.85;;
76667;SDS011;65585;51.166;16.922;2023-06-10T13:04:20;6.05;;;4.43;;
76667;SDS011;65585;51.166;16.922;2023-06-10T13:06:47;8.43;;;5.00;;
76667;SDS011;65585;51.166;16.922;2023-06-10T13:11:41;7.22;;;4.78;;
76667;SDS011;65585;51.166;16.922;2023-06-10T13:14:08;7.55;;;5.18;;
76667;SDS011;65585;51.166;16.922;2023-06-10T13:16:35;6.80;;;4.55;;
76667;SDS011;65585;51.166;16.922;2023-06-10T13:19:03;6.50;;;4.93;;
76667;SDS011;65585;51.166;16.922;2023-06-10T13:21:32;6.30;;;4.43;;
76667;SDS011;65585;51.166;16.922;2023-06-10T13:23:59;5.07;;;4.53;;
76667;SDS011;65585;51.166;16.922;2023-06-10T13:26:25;6.05;;;4.80;;
76667;SDS011;65585;51.166;16.922;2023-06-10T13:28:51;6.53;;;4.78;;
76667;SDS011;65585;51.166;16.922;2023-06-10T13:31:18;8.25;;;4.82;;
76667;SDS011;65585;51.166;16.922;2023-06-10T13:33:46;7.20;;;5.05;;
76667;SDS011;65585;51.166;16.922;2023-06-10T13:36:12;8.55;;;4.50;;
76667;SDS011;65585;51.166;16.922;2023-06-10T13:38:38;5.05;;;4.35;;
76667;SDS011;65585;51.166;16.922;2023-06-10T13:41:05;6.63;;;5.15;;
76667;SDS011;65585;51.166;16.922;2023-06-10T13:43:31;8.82;;;4.63;;
76667;SDS011;65585;51.166;16.922;2023-06-10T13:45:57;5.50;;;4.70;;
76667;SDS011;65585;51.166;16.922;2023-06-10T13:48:23;5.88;;;4.35;;
76667;SDS011;65585;51.166;16.922;2023-06-10T13:50:50;7.50;;;4.38;;
76667;SDS011;65585;51.166;16.922;2023-06-10T13:53:15;6.63;;;4.72;;
76667;SDS011;65585;51.166;16.922;2023-06-10T13:55:42;7.45;;;4.65;;
76667;SDS011;65585;51.166;16.922;2023-06-10T13:58:08;8.82;;;4.32;;
76667;SDS011;65585;51.166;16.922;2023-06-10T14:00:34;5.93;;;4.72;;
76667;SDS011;65585;51.166;16.922;2023-06-10T14:03:03;6.65;;;4.53;;
76667;SDS011;65585;51.166;16.922;2023-06-10T14:05:29;5.70;;;4.43;;
76667;SDS011;65585;51.166;16.922;2023-06-10T14:07:55;6.07;;;4.57;;
76667;SDS011;65585;51.166;16.922;2023-06-10T14:10:22;5.65;;;4.60;;
76667;SDS011;65585;51.166;16.922;2023-06-10T14:12:48;6.15;;;4.78;;
76667;SDS011;65585;51.166;16.922;2023-06-10T14:17:40;7.05;;;3.97;;
76667;SDS011;65585;51.166;16.922;2023-06-10T14:22:33;8.32;;;4.20;;
76667;SDS011;65585;51.166;16.922;2023-06-10T14:24:59;6.30;;;4.13;;
76667;SDS011;65585;51.166;16.922;2023-06-10T14:27:25;9.77;;;4.50;;
76667;SDS011;65585;51.166;16.922;2023-06-10T14:29:51;5.53;;;4.30;;
76667;SDS011;65585;51.166;16.922;2023-06-10T14:32:17;6.95;;;3.90;;
76667;SDS011;65585;51.166;16.922;2023-06-10T14:34:43;5.88;;;4.32;;
76667;SDS011;65585;51.166;16.922;2023-06-10T14:37:10;5.97;;;3.95;;
76667;SDS011;65585;51.166;16.922;2023-06-10T14:39:37;5.57;;;4.28;;
76667;SDS011;65585;51.166;16.922;2023-06-10T14:42:03;9.20;;;4.53;;
76667;SDS011;65585;51.166;16.922;2023-06-10T14:44:29;5.40;;;4.10;;
76667;SDS011;65585;51.166;16.922;2023-06-10T14:46:55;6.32;;;3.78;;
76667;SDS011;65585;51.166;16.922;2023-06-10T14:49:22;5.47;;;4.25;;
76667;SDS011;65585;51.166;16.922;2023-06-10T14:51:48;6.13;;;4.20;;
76667;SDS011;65585;51.166;16.922;2023-06-10T14:54:16;5.25;;;4.35;;
76667;SDS011;65585;51.166;16.922;2023-06-10T14:56:42;6.63;;;4.15;;
76667;SDS011;65585;51.166;16.922;2023-06-10T15:01:34;6.78;;;4.13;;
76667;SDS011;65585;51.166;16.922;2023-06-10T15:04:01;4.82;;;4.10;;
76667;SDS011;65585;51.166;16.922;2023-06-10T15:06:27;8.43;;;4.20;;
76667;SDS011;65585;51.166;16.922;2023-06-10T15:08:54;7.05;;;4.70;;
76667;SDS011;65585;51.166;16.922;2023-06-10T15:11:20;6.35;;;4.25;;
76667;SDS011;65585;51.166;16.922;2023-06-10T15:13:46;7.07;;;4.32;;
76667;SDS011;65585;51.166;16.922;2023-06-10T15:16:12;9.05;;;4.38;;
76667;SDS011;65585;51.166;16.922;2023-06-10T15:18:40;4.88;;;4.20;;
76667;SDS011;65585;51.166;16.922;2023-06-10T15:21:06;5.85;;;4.30;;
76667;SDS011;65585;51.166;16.922;2023-06-10T15:23:32;8.13;;;4.88;;
76667;SDS011;65585;51.166;16.922;2023-06-10T15:25:58;8.32;;;4.78;;
76667;SDS011;65585;51.166;16.922;2023-06-10T15:28:25;6.60;;;4.55;;
76667;SDS011;65585;51.166;16.922;2023-06-10T15:30:51;5.43;;;4.25;;
76667;SDS011;65585;51.166;16.922;2023-06-10T15:33:18;6.70;;;4.40;;
76667;SDS011;65585;51.166;16.922;2023-06-10T15:35:44;7.68;;;4.38;;
76667;SDS011;65585;51.166;16.922;2023-06-10T15:38:10;5.95;;;4.30;;
76667;SDS011;65585;51.166;16.922;2023-06-10T15:40:36;5.35;;;4.43;;
76667;SDS011;65585;51.166;16.922;2023-06-10T15:43:02;5.90;;;3.95;;
76667;SDS011;65585;51.166;16.922;2023-06-10T15:45:29;8.27;;;4.68;;
76667;SDS011;65585;51.166;16.922;2023-06-10T15:47:56;5.32;;;3.90;;
76667;SDS011;65585;51.166;16.922;2023-06-10T15:50:22;5.70;;;3.90;;
76667;SDS011;65585;51.166;16.922;2023-06-10T15:52:48;6.45;;;4.38;;
76667;SDS011;65585;51.166;16.922;2023-06-10T15:55:14;5.43;;;4.03;;
76667;SDS011;65585;51.166;16.922;2023-06-10T15:57:41;5.88;;;4.05;;
76667;SDS011;65585;51.166;16.922;2023-06-10T16:00:07;6.10;;;4.20;;
76667;SDS011;65585;51.166;16.922;2023-06-10T16:02:36;7.47;;;4.35;;
76667;SDS011;65585;51.166;16.922;2023-06-10T16:05:02;4.72;;;3.67;;
76667;SDS011;65585;51.166;16.922;2023-06-10T16:07:28;9.40;;;4.05;;
76667;SDS011;65585;51.166;16.922;2023-06-10T16:09:54;5.28;;;3.63;;
76667;SDS011;65585;51.166;16.922;2023-06-10T16:12:20;4.30;;;3.45;;
76667;SDS011;65585;51.166;16.922;2023-06-10T16:14:46;6.68;;;3.72;;
76667;SDS011;65585;51.166;16.922;2023-06-10T16:17:12;7.13;;;4.28;;
76667;SDS011;65585;51.166;16.922;2023-06-10T16:19:38;4.88;;;3.60;;
76667;SDS011;65585;51.166;16.922;2023-06-10T16:22:05;7.82;;;4.15;;
76667;SDS011;65585;51.166;16.922;2023-06-10T16:24:31;6.10;;;4.10;;
76667;SDS011;65585;51.166;16.922;2023-06-10T16:26:57;6.05;;;3.92;;
76667;SDS011;65585;51.166;16.922;2023-06-10T16:29:23;5.15;;;3.97;;
76667;SDS011;65585;51.166;16.922;2023-06-10T16:31:52;5.97;;;3.80;;
76667;SDS011;65585;51.166;16.922;2023-06-10T16:34:18;6.10;;;4.10;;
76667;SDS011;65585;51.166;16.922;2023-06-10T16:36:44;6.35;;;4.25;;
76667;SDS011;65585;51.166;16.922;2023-06-10T16:39:10;6.15;;;4.00;;
76667;SDS011;65585;51.166;16.922;2023-06-10T16:41:37;6.45;;;3.92;;
76667;SDS011;65585;51.166;16.922;2023-06-10T16:44:03;6.45;;;4.18;;
76667;SDS011;65585;51.166;16.922;2023-06-10T16:46:29;5.90;;;3.92;;
76667;SDS011;65585;51.166;16.922;2023-06-10T16:48:55;6.65;;;3.80;;
76667;SDS011;65585;51.166;16.922;2023-06-10T16:51:22;6.65;;;3.95;;
76667;SDS011;65585;51.166;16.922;2023-06-10T16:53:48;8.13;;;4.57;;
76667;SDS011;65585;51.166;16.922;2023-06-10T16:56:14;6.35;;;3.78;;